Map

Track Data

SID SEASON NUMBER BASIN SUBBASIN NAME ISO_TIME NATURE LAT LON WMO_WIND WMO_PRES WMO_AGENCY TRACK_TYPE DIST2LAND LANDFALL IFLAG USA_AGENCY USA_ATCF_ID USA_LAT USA_LON USA_RECORD USA_STATUS USA_WIND USA_PRES USA_SSHS USA_R34_NE USA_R34_SE USA_R34_SW USA_R34_NW USA_R50_NE USA_R50_SE USA_R50_SW USA_R50_NW USA_R64_NE USA_R64_SE USA_R64_SW USA_R64_NW USA_POCI USA_ROCI USA_RMW USA_EYE TOKYO_LAT TOKYO_LON TOKYO_GRADE TOKYO_WIND TOKYO_PRES TOKYO_R50_DIR TOKYO_R50_LONG TOKYO_R50_SHORT TOKYO_R30_DIR TOKYO_R30_LONG TOKYO_R30_SHORT TOKYO_LAND CMA_LAT CMA_LON CMA_CAT CMA_WIND CMA_PRES HKO_LAT HKO_LON HKO_CAT HKO_WIND HKO_PRES NEWDELHI_LAT NEWDELHI_LON NEWDELHI_GRADE NEWDELHI_WIND NEWDELHI_PRES NEWDELHI_CI NEWDELHI_DP NEWDELHI_POCI REUNION_LAT REUNION_LON REUNION_TYPE REUNION_WIND REUNION_PRES REUNION_TNUM REUNION_CI REUNION_RMW REUNION_R34_NE REUNION_R34_SE REUNION_R34_SW REUNION_R34_NW REUNION_R50_NE REUNION_R50_SE REUNION_R50_SW REUNION_R50_NW REUNION_R64_NE REUNION_R64_SE REUNION_R64_SW REUNION_R64_NW BOM_LAT BOM_LON BOM_TYPE BOM_WIND BOM_PRES BOM_TNUM BOM_CI BOM_RMW BOM_R34_NE BOM_R34_SE BOM_R34_SW BOM_R34_NW BOM_R50_NE BOM_R50_SE BOM_R50_SW BOM_R50_NW BOM_R64_NE BOM_R64_SE BOM_R64_SW BOM_R64_NW BOM_ROCI BOM_POCI BOM_EYE BOM_POS_METHOD BOM_PRES_METHOD NADI_LAT NADI_LON NADI_CAT NADI_WIND NADI_PRES WELLINGTON_LAT WELLINGTON_LON WELLINGTON_WIND WELLINGTON_PRES DS824_LAT DS824_LON DS824_STAGE DS824_WIND DS824_PRES TD9636_LAT TD9636_LON TD9636_STAGE TD9636_WIND TD9636_PRES TD9635_LAT TD9635_LON TD9635_WIND TD9635_PRES TD9635_ROCI NEUMANN_LAT NEUMANN_LON NEUMANN_CLASS NEUMANN_WIND NEUMANN_PRES MLC_LAT MLC_LON MLC_CLASS MLC_WIND MLC_PRES USA_GUST BOM_GUST BOM_GUST_PER REUNION_GUST REUNION_GUST_PER USA_SEAHGT USA_SEARAD_NE USA_SEARAD_SE USA_SEARAD_SW USA_SEARAD_NW STORM_SPEED STORM_DIR
1970004S09175 1970 3 SP MM NOT_NAMED 1970-01-04 00:00:00 TS -9.00000 174.900 main 946 912 O________OO___ jtwc_sh SH061970 -9.00000 174.900 -1 -9.00000 174.900 TC -9.00000 174.900 1 16 93
1970004S09175 1970 3 SP MM NOT_NAMED 1970-01-04 03:00:00 TS -9.04342 175.732 main 912 873 P________PP___ SH061970 -9.03322 175.805 -1 -9.03322 175.805 TC -9.06382 175.587 1 15 94
1970004S09175 1970 3 SP MM NOT_NAMED 1970-01-04 06:00:00 TS -9.11380 176.396 main 873 851 O________OP___ jtwc_sh SH061970 -9.10000 176.500 -1 -9.10000 176.500 TC -9.14139 176.189 1 10 101
1970004S09175 1970 3 SP MM NOT_NAMED 1970-01-04 09:00:00 TS -9.23416 176.756 main 847 826 P________PP___ SH061970 -9.22715 176.822 -1 -9.22715 176.822 TC -9.24820 176.622 1 5 126
1970004S09175 1970 3 SP MM NOT_NAMED 1970-01-04 12:00:00 TS -9.40000 176.800 main 826 813 O________OO___ jtwc_sh SH061970 -9.40000 176.800 -1 -9.40000 176.800 TC -9.40000 176.800 1 4 206
1970004S09175 1970 3 SP MM NOT_NAMED 1970-01-04 15:00:00 TS -9.59172 176.583 main 813 805 P________PP___ SH061970 -9.58502 176.540 -1 -9.58502 176.540 TC -9.60511 176.668 1 8 237
1970004S09175 1970 3 SP MM NOT_NAMED 1970-01-04 18:00:00 TS -9.81415 176.164 main 809 798 O________OP___ jtwc_sh SH061970 -9.80000 176.100 -1 -9.80000 176.100 TC -9.84246 176.293 1 10 241
1970004S09175 1970 3 SP MM NOT_NAMED 1970-01-04 21:00:00 TS -10.0711 175.711 main 798 795 P________PP___ SH061970 -10.0649 175.680 -1 -10.0649 175.680 TC -10.0835 175.771 1 11 243
1970004S09175 1970 3 SP MM NOT_NAMED 1970-01-05 00:00:00 TS -10.3000 175.200 main 800 800 O________OO___ jtwc_sh SH061970 -10.3000 175.200 -1 -10.3000 175.200 TC -10.3000 175.200 1 11 252
1970004S09175 1970 3 SP MM NOT_NAMED 1970-01-05 03:00:00 TS -10.4133 174.649 main 821 821 P________PP___ SH061970 -10.4150 174.650 -1 -10.4150 174.650 TC -10.4097 174.647 1 11 260
1970004S09175 1970 3 SP MM NOT_NAMED 1970-01-05 06:00:00 TS -10.4995 174.093 main 841 841 O________OP___ jtwc_sh SH061970 -10.5000 174.100 -1 -10.5000 174.100 TC -10.4984 174.080 1 11 259
1970004S09175 1970 3 SP MM NOT_NAMED 1970-01-05 09:00:00 TS -10.6176 173.574 main 860 811 P________PP___ SH061970 -10.6200 173.575 -1 -10.6200 173.575 TC -10.6128 173.572 1 9 251
1970004S09175 1970 3 SP MM NOT_NAMED 1970-01-05 12:00:00 TS -10.8000 173.200 main 811 789 O________OO___ jtwc_sh SH061970 -10.8000 173.200 -1 -10.8000 173.200 TC -10.8000 173.200 1 7 228
1970004S09175 1970 3 SP MM NOT_NAMED 1970-01-05 15:00:00 TS -11.0582 173.082 main 783 764 P________PP___ SH061970 -11.0474 173.075 -1 -11.0474 173.075 TC -11.0798 173.096 1 6 188
1970004S09175 1970 3 SP MM NOT_NAMED 1970-01-05 18:00:00 TS -11.4140 173.108 main 764 751 O________OP___ jtwc_sh SH061970 -11.4000 173.100 -1 -11.4000 173.100 TC -11.4420 173.123 1 8 173
1970004S09175 1970 3 SP MM NOT_NAMED 1970-01-05 21:00:00 TS -11.8594 173.188 main 745 720 P________PP___ SH061970 -11.8475 173.187 -1 -11.8475 173.187 TC -11.8831 173.189 1 10 175
1970004S09175 1970 3 SP MM NOT_NAMED 1970-01-06 00:00:00 TS -12.4000 173.200 main 720 670 O________OO___ jtwc_sh SH061970 -12.4000 173.200 -1 -12.4000 173.200 TC -12.4000 173.200 1 12 192
1970004S09175 1970 3 SP MM NOT_NAMED 1970-01-06 03:00:00 TS -13.0275 172.932 main 661 592 P________PP___ SH061970 -13.0276 172.938 -1 -13.0276 172.938 TC -13.0272 172.919 1 14 204
1970004S09175 1970 3 SP MM NOT_NAMED 1970-01-06 06:00:00 TS -13.7051 172.595 main 592 532 O________OP___ jtwc_sh SH061970 -13.7000 172.600 -1 -13.7000 172.600 TC -13.7153 172.584 1 15 204
1970004S09175 1970 3 SP MM NOT_NAMED 1970-01-06 09:00:00 TS -14.3852 172.309 main 527 493 P________PP___ SH061970 -14.3799 172.310 -1 -14.3799 172.310 TC -14.3957 172.306 1 14 196
1970004S09175 1970 3 SP MM NOT_NAMED 1970-01-06 12:00:00 TS -15.0000 172.200 main 493 486 O________OO___ jtwc_sh SH061970 -15.0000 172.200 -1 -15.0000 172.200 TC -15.0000 172.200 1 11 176
1970004S09175 1970 3 SP MM NOT_NAMED 1970-01-06 15:00:00 TS -15.5151 172.392 main 500 498 P________PP___ SH061970 -15.5099 172.395 -1 -15.5099 172.395 TC -15.5254 172.386 1 11 148
1970004S09175 1970 3 SP MM NOT_NAMED 1970-01-06 18:00:00 TS -15.9183 172.785 main 523 470 O________OP___ jtwc_sh SH061970 -15.9000 172.800 -1 -15.9000 172.800 TC -15.9548 172.756 1 11 131
1970004S09175 1970 3 SP MM NOT_NAMED 1970-01-06 21:00:00 TS -16.2356 173.263 main 460 403 P________PP___ SH061970 -16.2251 173.270 -1 -16.2251 173.270 TC -16.2568 173.249 1 11 116
1970004S09175 1970 3 SP MM NOT_NAMED 1970-01-07 00:00:00 TS -16.4000 173.800 main 403 356 O________OO___ jtwc_sh SH061970 -16.4000 173.800 -1 -16.4000 173.800 TC -16.4000 173.800 1 10 100
1970004S09175 1970 3 SP MM NOT_NAMED 1970-01-07 03:00:00 TS -16.4154 174.309 main 356 312 P________PP___ SH061970 -16.4398 174.285 -1 -16.4398 174.285 TC -16.3667 174.357 1 10 82
1970004S09175 1970 3 SP MM NOT_NAMED 1970-01-07 06:00:00 TS -16.2636 174.836 main 312 278 O________OP___ jtwc_sh SH061970 -16.3000 174.800 -1 -16.3000 174.800 TC -16.1909 174.909 1 11 67
1970004S09175 1970 3 SP MM NOT_NAMED 1970-01-07 09:00:00 TS -15.9702 175.406 main 278 263 P________PP___ SH061970 -15.9954 175.381 -1 -15.9954 175.381 TC -15.9196 175.456 1 13 59
1970004S09175 1970 3 SP MM NOT_NAMED 1970-01-07 12:00:00 TS -15.6000 176.000 main 266 O________OO___ jtwc_sh SH061970 -15.6000 176.000 -1 -15.6000 176.000 TC -15.6000 176.000 1 14 57

Digital Typhoon Data and Search

About IBTrACS Database

This database is a web-friendly format of International Best Track Archive for Climate Stewardship (IBTrACS), a global best track data archive curated by NOAA dating back to 1842.

Updated: 2021-12-01